Hlavní strana
METAR-TAF:

METAR-TAF

Letiště :

Sharurah, Saúdská Arábie

zeměpisná šířka: 17-28N, zeměpisná délka: 047-07E, výška: 720 m

Aktuální stav počasí

Zpráva byla vytvořena před 1 hodinou a 7 minutami, v 03:00 UTC
Jihojihozápadní vítr 8 kt
Teplota 25°C
Vlhkost vzduchu 39%
Tlak 1013 hPa
Viditelnost 10 km a více
Žádná oblačnost pod 1500 m, nevyskytují se cumulonimby.

METAR: OESH 020300Z 21008KT CAVOK 25/10 Q1013 NOSIG

Čas: 07:07 (04:07 UTC)

Předpověď počasí

Zpráva byla vytvořena před 5 hodinami a 7 minutami, v 23:00 UTC
Předpověď platná od 02 v 00 UTC do 03 v 06 UTC
vítr z různých směrů 3 kt
Viditelnost 10 km a více
Žádná oblačnost pod 1500 m, nevyskytují se cumulonimby.
Změna
od 02 v 03 UTC do 02 v 05 UTC
Jižní vítr 15 kt
Změna
od 02 v 15 UTC do 02 v 17 UTC
Východní vítr 8 kt

TAF: OESH 012300Z 0200/0306 VRB03KT CAVOK BECMG 0203/0205 19015KT BECMG 0215/0217 09008KT

Stav a předpovědi počasí z více než 4 000 letišť (zprávy METAR a TAF).

Červené a žluté tečky na mapě představují dostupné meteorologické stanice.

Když kurzor umístíte na tečku, zobrazí se název stanice.

Pak kliknutím zobrazíte stav a předpověď počasí.

Chcete-li změnit mapu, kliknutím na zelené tlačítko se znaménkem +mapu přiblížíte, kliknutím na zelené tlačítko se znaménkem – mapu oddálíte a kliknutím na zelené šipky přejdete na sousední mapy.


METAR-TAF: